Terminal Aerodrome Forecast
Issued by NWS

Home | Current Version | Previous Version | Text Only | Print | Product List | Glossary Off
Versions: 1 2 3 4 5 6 7 8 9 10 11 12 13 14 15 16 17 18 19 20

000
FTUS43 KABR 270532
TAFMBG
TAF
KMBG 270532Z 2706/2806 VRB03KT P6SM BKN150
     FM271300 26006KT P6SM BKN200
     FM271700 28010KT P6SM SCT200
     FM280200 31008KT P6SM BKN110=

USA.gov is the U.S. government's official web portal to all federal, state and local government web resources and services.